createdAt,value
2022-11-17T00:01:32.092Z,15.82
2022-11-17T00:04:01.685Z,15.18
2022-11-17T00:06:30.160Z,15.48
2022-11-17T00:08:58.667Z,15.43
2022-11-17T00:11:47.702Z,14.85
2022-11-17T00:14:33.433Z,14.98
2022-11-17T00:17:04.207Z,16.55
2022-11-17T00:19:54.245Z,16.60
2022-11-17T00:22:22.677Z,17.15
2022-11-17T00:24:51.531Z,15.98
2022-11-17T00:27:20.791Z,15.95
2022-11-17T00:29:49.291Z,16.60
2022-11-17T00:32:36.529Z,17.48
2022-11-17T00:35:07.422Z,18.00
2022-11-17T00:37:39.312Z,16.08
2022-11-17T00:40:09.197Z,17.58
2022-11-17T00:42:37.499Z,17.65
2022-11-17T00:45:06.451Z,17.23
2022-11-17T00:47:37.587Z,18.25
2022-11-17T00:50:11.611Z,15.82
2022-11-17T00:52:39.821Z,18.67
2022-11-17T00:55:09.241Z,19.00
2022-11-17T00:57:40.710Z,18.55
2022-11-17T01:00:11.106Z,16.48
2022-11-17T01:02:39.632Z,17.60
2022-11-17T01:05:09.873Z,15.70
2022-11-17T01:07:38.145Z,15.18
2022-11-17T01:10:07.329Z,13.48
2022-11-17T01:12:36.461Z,13.73
2022-11-17T01:15:05.178Z,13.73
2022-11-17T01:17:33.638Z,14.55
2022-11-17T01:20:01.948Z,15.77
2022-11-17T01:22:31.775Z,16.33
2022-11-17T01:25:00.173Z,16.35
2022-11-17T01:27:28.363Z,15.35
2022-11-17T01:29:56.569Z,15.90
2022-11-17T01:32:24.759Z,15.38
2022-11-17T01:34:53.919Z,17.25
2022-11-17T01:37:22.205Z,16.38
2022-11-17T01:39:52.088Z,15.90
2022-11-17T01:42:22.811Z,16.67
2022-11-17T01:45:18.627Z,16.52
2022-11-17T01:47:50.636Z,15.30
2022-11-17T01:50:29.211Z,13.95
2022-11-17T01:53:00.722Z,14.00
2022-11-17T01:55:36.724Z,14.38
2022-11-17T01:58:12.046Z,12.20
2022-11-17T02:00:41.853Z,13.45
2022-11-17T02:03:10.729Z,11.77
2022-11-17T02:05:46.988Z,12.10
2022-11-17T02:08:17.055Z,12.57
2022-11-17T02:10:51.613Z,11.77
2022-11-17T02:13:21.053Z,11.07
2022-11-17T02:15:49.881Z,11.43
2022-11-17T02:18:18.886Z,11.27
2022-11-17T02:21:11.719Z,11.23
2022-11-17T02:24:34.825Z,11.63
2022-11-17T02:27:32.653Z,11.70
2022-11-17T02:30:04.626Z,11.43
2022-11-17T02:32:47.603Z,11.80
2022-11-17T02:35:23.856Z,10.85
2022-11-17T02:38:02.355Z,11.35
2022-11-17T02:40:35.726Z,10.68
2022-11-17T02:43:27.024Z,10.95
2022-11-17T02:45:59.266Z,10.07
2022-11-17T02:48:33.816Z,11.20
2022-11-17T02:51:04.101Z,11.45
2022-11-17T02:53:35.052Z,10.75
2022-11-17T02:56:03.826Z,11.60
2022-11-17T02:58:33.506Z,11.88
2022-11-17T03:01:25.678Z,10.93
2022-11-17T03:04:08.098Z,11.35
2022-11-17T03:06:46.893Z,11.43
2022-11-17T03:09:22.876Z,12.00
2022-11-17T03:11:59.933Z,11.68
2022-11-17T03:14:38.803Z,12.25
2022-11-17T03:17:14.717Z,13.00
2022-11-17T03:19:48.333Z,12.43
2022-11-17T03:22:22.497Z,14.18
2022-11-17T03:24:54.885Z,12.38
2022-11-17T03:27:30.862Z,14.52
2022-11-17T03:30:04.126Z,12.88
2022-11-17T03:32:37.464Z,12.95
2022-11-17T03:35:09.652Z,13.38
2022-11-17T03:37:43.498Z,12.77
2022-11-17T03:40:16.425Z,14.43
2022-11-17T03:42:52.577Z,14.15
2022-11-17T03:45:25.865Z,13.77
2022-11-17T03:48:01.593Z,14.43
2022-11-17T03:50:35.239Z,13.15
2022-11-17T03:53:05.761Z,14.10
2022-11-17T03:55:41.526Z,15.20
2022-11-17T03:58:15.833Z,14.77
2022-11-17T04:00:47.649Z,15.38
2022-11-17T04:03:16.684Z,15.13
2022-11-17T04:05:45.039Z,14.32
2022-11-17T04:08:13.319Z,13.52
2022-11-17T04:10:55.435Z,14.75
2022-11-17T04:13:41.402Z,14.52
2022-11-17T04:16:11.356Z,14.25
2022-11-17T04:18:40.412Z,13.15
2022-11-17T04:21:09.276Z,14.60
2022-11-17T04:23:37.976Z,14.00
2022-11-17T04:26:24.068Z,13.95
2022-11-17T04:28:52.340Z,14.02
2022-11-17T04:31:24.354Z,13.80
2022-11-17T04:33:54.261Z,13.13
2022-11-17T04:36:24.678Z,13.00
2022-11-17T04:38:54.696Z,12.30
2022-11-17T04:41:42.206Z,12.85
2022-11-17T04:44:16.823Z,11.93
2022-11-17T04:46:47.807Z,12.48
2022-11-17T04:49:17.540Z,14.50
2022-11-17T04:51:46.304Z,14.32
2022-11-17T04:54:20.214Z,14.57
2022-11-17T04:56:49.125Z,14.10
2022-11-17T04:59:17.454Z,15.57
2022-11-17T05:01:47.572Z,13.55
2022-11-17T05:04:39.363Z,13.95
2022-11-17T05:07:08.276Z,13.75
2022-11-17T05:09:37.747Z,12.52
2022-11-17T05:12:24.462Z,13.45
2022-11-17T05:14:53.213Z,13.10
2022-11-17T05:17:22.503Z,12.27
2022-11-17T05:19:51.231Z,12.50
2022-11-17T05:22:38.570Z,11.23
2022-11-17T05:25:10.687Z,11.02
2022-11-17T05:27:39.279Z,10.90
2022-11-17T05:30:09.617Z,11.98
2022-11-17T05:32:39.184Z,11.75
2022-11-17T05:35:08.570Z,10.52
2022-11-17T05:37:36.857Z,10.80
2022-11-17T05:40:05.529Z,10.77
2022-11-17T05:42:35.412Z,11.40
2022-11-17T05:45:03.767Z,10.88
2022-11-17T05:47:32.878Z,10.48
2022-11-17T05:50:02.484Z,10.80
2022-11-17T05:52:30.851Z,11.32
2022-11-17T05:54:59.092Z,10.43
2022-11-17T05:57:31.725Z,11.23
2022-11-17T06:00:05.085Z,12.55
2022-11-17T06:02:39.179Z,11.63
2022-11-17T06:05:13.255Z,11.73
2022-11-17T06:07:45.197Z,13.48
2022-11-17T06:10:14.002Z,14.07
2022-11-17T06:12:42.214Z,14.80
2022-11-17T06:15:11.248Z,15.18
2022-11-17T06:17:42.974Z,14.27
2022-11-17T06:20:17.574Z,14.13
2022-11-17T06:22:48.522Z,14.27
2022-11-17T06:25:18.248Z,14.70
2022-11-17T06:27:48.499Z,13.13
2022-11-17T06:30:20.148Z,13.07
2022-11-17T06:32:50.024Z,12.13
2022-11-17T06:35:19.738Z,11.52
2022-11-17T06:37:47.971Z,11.27
2022-11-17T06:40:18.039Z,11.20
2022-11-17T06:43:03.480Z,11.27
2022-11-17T06:45:34.437Z,11.00
2022-11-17T06:48:02.735Z,10.70
2022-11-17T06:50:32.594Z,9.23
2022-11-17T06:53:01.738Z,10.50
2022-11-17T06:55:30.482Z,9.27
2022-11-17T06:58:02.718Z,10.80
2022-11-17T07:00:31.732Z,8.88
2022-11-17T07:03:01.604Z,8.77
2022-11-17T07:05:31.854Z,8.50
2022-11-17T07:08:03.687Z,8.35
2022-11-17T07:10:33.162Z,7.57
2022-11-17T07:13:01.585Z,8.15
2022-11-17T07:15:29.860Z,9.60
2022-11-17T07:17:59.641Z,7.28
2022-11-17T07:20:27.942Z,7.10
2022-11-17T07:23:01.143Z,5.13
2022-11-17T07:25:29.504Z,6.13
2022-11-17T07:28:01.392Z,4.43
2022-11-17T07:30:29.871Z,5.78
2022-11-17T07:33:00.385Z,5.32
2022-11-17T07:35:29.627Z,5.60
2022-11-17T07:38:02.742Z,5.50
2022-11-17T07:40:31.843Z,4.55
2022-11-17T07:43:00.310Z,4.10
2022-11-17T07:45:31.774Z,4.68
2022-11-17T07:48:03.503Z,4.32
2022-11-17T07:50:32.814Z,3.42
2022-11-17T07:53:02.751Z,3.95
2022-11-17T07:55:30.904Z,3.25
2022-11-17T07:58:00.483Z,3.85
2022-11-17T08:00:31.087Z,3.72
2022-11-17T08:03:03.647Z,4.40
2022-11-17T08:05:32.254Z,3.97
2022-11-17T08:08:02.742Z,3.83
2022-11-17T08:10:31.603Z,3.47
2022-11-17T08:13:00.866Z,3.28
2022-11-17T08:15:29.578Z,3.30
2022-11-17T08:17:59.206Z,3.25
2022-11-17T08:20:29.874Z,3.33
2022-11-17T08:22:58.592Z,3.17
2022-11-17T08:25:28.857Z,3.28
2022-11-17T08:27:58.158Z,3.60
2022-11-17T08:30:28.542Z,3.78
2022-11-17T08:32:56.778Z,3.40
2022-11-17T08:35:26.824Z,3.25
2022-11-17T08:37:55.553Z,3.40
2022-11-17T08:40:24.700Z,3.80
2022-11-17T08:43:00.586Z,3.00
2022-11-17T08:45:29.633Z,2.95
2022-11-17T08:47:58.395Z,3.08
2022-11-17T08:50:26.747Z,2.95
2022-11-17T08:52:55.065Z,3.45
2022-11-17T08:55:23.489Z,3.03
2022-11-17T08:57:51.750Z,2.53
2022-11-17T09:00:22.500Z,3.08
2022-11-17T09:02:50.839Z,2.63
2022-11-17T09:05:19.075Z,2.53
2022-11-17T09:07:47.398Z,3.13
2022-11-17T09:10:15.792Z,2.95
2022-11-17T09:12:44.373Z,2.65
2022-11-17T09:15:12.557Z,2.83
2022-11-17T09:17:47.624Z,2.60
2022-11-17T09:20:16.657Z,2.10
2022-11-17T09:22:46.103Z,2.30
2022-11-17T09:25:16.166Z,2.50
2022-11-17T09:27:44.486Z,2.15
2022-11-17T09:30:14.405Z,2.33
2022-11-17T09:32:44.003Z,1.92
2022-11-17T09:35:12.258Z,2.70
2022-11-17T09:37:40.865Z,2.20
2022-11-17T09:40:14.238Z,1.92
2022-11-17T09:42:43.172Z,1.67
2022-11-17T09:45:18.529Z,1.90
2022-11-17T09:48:06.959Z,1.70
2022-11-17T09:50:42.120Z,1.70
2022-11-17T09:53:20.525Z,1.90
2022-11-17T09:55:52.226Z,1.63
2022-11-17T09:58:32.671Z,1.85
2022-11-17T10:01:04.180Z,1.45
2022-11-17T10:03:40.323Z,1.90
2022-11-17T10:06:17.036Z,2.10
2022-11-17T10:08:53.283Z,1.77
2022-11-17T10:11:33.535Z,1.98
2022-11-17T10:14:13.649Z,2.10
2022-11-17T10:16:44.601Z,1.90
2022-11-17T10:19:18.151Z,2.05
2022-11-17T10:21:49.089Z,2.28
2022-11-17T10:24:36.277Z,1.77
2022-11-17T10:27:06.493Z,2.00
2022-11-17T10:29:35.094Z,1.85
2022-11-17T10:32:09.420Z,2.00
2022-11-17T10:34:41.590Z,2.20
2022-11-17T10:37:25.944Z,2.42
2022-11-17T10:40:10.464Z,2.00
2022-11-17T10:42:39.632Z,1.80
2022-11-17T10:45:17.873Z,2.20
2022-11-17T10:47:46.940Z,2.38
2022-11-17T10:50:23.424Z,2.90
2022-11-17T10:52:53.232Z,2.67
2022-11-17T10:55:27.475Z,2.40
2022-11-17T10:57:59.853Z,3.15
2022-11-17T11:00:33.592Z,2.92
2022-11-17T11:03:08.346Z,3.58
2022-11-17T11:05:39.015Z,3.20
2022-11-17T11:08:19.772Z,3.10
2022-11-17T11:10:51.590Z,2.95
2022-11-17T11:13:28.547Z,2.72
2022-11-17T11:15:57.496Z,2.80
2022-11-17T11:18:28.936Z,2.75
2022-11-17T11:21:07.931Z,2.70
2022-11-17T11:23:50.365Z,2.85
2022-11-17T11:26:35.874Z,2.55
2022-11-17T11:29:18.967Z,2.53
2022-11-17T11:32:01.476Z,2.20
2022-11-17T11:34:47.310Z,2.65
2022-11-17T11:37:17.936Z,3.00
2022-11-17T11:40:04.377Z,2.47
2022-11-17T11:42:51.850Z,2.97
2022-11-17T11:45:35.902Z,2.38
2022-11-17T11:48:21.318Z,2.50
2022-11-17T11:50:54.789Z,3.13
2022-11-17T11:53:34.560Z,2.95
2022-11-17T11:56:13.269Z,3.28
2022-11-17T11:58:47.616Z,3.20
2022-11-17T12:01:18.850Z,2.90
2022-11-17T12:03:52.632Z,3.08
2022-11-17T12:06:42.471Z,3.20
2022-11-17T12:09:41.562Z,3.13
2022-11-17T12:12:14.783Z,3.55
2022-11-17T12:15:27.347Z,3.50
2022-11-17T12:18:01.064Z,3.13
2022-11-17T12:20:59.524Z,3.63
2022-11-17T12:23:50.060Z,3.33
2022-11-17T12:26:25.568Z,3.30
2022-11-17T12:29:25.569Z,3.28
2022-11-17T12:31:55.005Z,3.33
2022-11-17T12:34:26.911Z,3.97
2022-11-17T12:37:23.120Z,3.72
2022-11-17T12:40:06.378Z,3.90
2022-11-17T12:42:37.219Z,3.90
2022-11-17T12:45:10.285Z,3.72
2022-11-17T12:47:40.502Z,3.90
2022-11-17T12:50:43.003Z,6.07
2022-11-17T12:53:36.813Z,4.88
2022-11-17T12:56:32.529Z,4.90
2022-11-17T12:59:13.143Z,4.72
2022-11-17T13:01:52.334Z,3.80
2022-11-17T13:04:24.759Z,3.55
2022-11-17T13:07:01.067Z,3.97
2022-11-17T13:09:30.839Z,3.65
2022-11-17T13:12:04.241Z,3.50
2022-11-17T13:14:35.037Z,3.47
2022-11-17T13:17:04.717Z,3.50
2022-11-17T13:19:39.294Z,3.47
2022-11-17T13:22:15.942Z,3.97
2022-11-17T13:24:45.945Z,3.40
2022-11-17T13:27:23.182Z,4.05
2022-11-17T13:29:54.102Z,4.00
2022-11-17T13:32:24.086Z,4.10
2022-11-17T13:34:56.362Z,3.72
2022-11-17T13:37:26.781Z,3.50
2022-11-17T13:40:00.393Z,4.10
2022-11-17T13:42:32.240Z,4.07
2022-11-17T13:45:04.496Z,3.45
2022-11-17T13:47:46.544Z,4.15
2022-11-17T13:50:37.011Z,4.00
2022-11-17T13:53:17.774Z,3.85
2022-11-17T13:55:48.169Z,4.40
2022-11-17T13:58:36.129Z,4.22
2022-11-17T14:01:05.989Z,4.28
2022-11-17T14:03:39.370Z,5.00
2022-11-17T14:06:09.487Z,4.15
2022-11-17T14:08:40.828Z,4.18
2022-11-17T14:11:22.468Z,4.32
2022-11-17T14:13:52.676Z,3.67
2022-11-17T14:16:28.241Z,4.25
2022-11-17T14:19:02.104Z,4.28
2022-11-17T14:21:32.407Z,4.43
2022-11-17T14:24:06.813Z,5.43
2022-11-17T14:26:35.110Z,5.20
2022-11-17T14:29:03.767Z,4.40
2022-11-17T14:31:33.693Z,4.80
2022-11-17T14:34:02.697Z,5.05
2022-11-17T14:36:32.910Z,5.30
2022-11-17T14:39:02.839Z,5.40
2022-11-17T14:41:31.831Z,6.35
2022-11-17T14:44:00.006Z,5.70
2022-11-17T14:46:29.096Z,5.57
2022-11-17T14:48:59.590Z,4.93
2022-11-17T14:51:27.819Z,4.38
2022-11-17T14:53:56.164Z,3.75
2022-11-17T14:56:25.690Z,4.13
2022-11-17T14:58:58.781Z,3.47
2022-11-17T15:01:30.427Z,4.38
2022-11-17T15:04:20.701Z,4.72
2022-11-17T15:06:50.870Z,4.57
2022-11-17T15:09:20.507Z,3.92
2022-11-17T15:11:49.414Z,4.10
2022-11-17T15:14:18.213Z,4.00
2022-11-17T15:16:46.867Z,4.00
2022-11-17T15:19:17.096Z,3.78
2022-11-17T15:21:46.267Z,4.00
2022-11-17T15:24:15.137Z,3.28
2022-11-17T15:26:45.533Z,3.20
2022-11-17T15:29:16.039Z,3.50
2022-11-17T15:31:44.533Z,3.75
2022-11-17T15:34:19.876Z,4.18
2022-11-17T15:36:51.292Z,2.90
2022-11-17T15:39:20.927Z,3.22
2022-11-17T15:41:50.740Z,3.47
2022-11-17T15:44:19.851Z,3.35
2022-11-17T15:46:48.268Z,2.60
2022-11-17T15:49:17.299Z,3.85
2022-11-17T15:51:45.881Z,2.78
2022-11-17T15:54:20.249Z,2.50
2022-11-17T15:56:49.309Z,2.90
2022-11-17T15:59:17.966Z,5.18
2022-11-17T16:01:52.579Z,6.28
2022-11-17T16:04:21.575Z,4.72
2022-11-17T16:06:50.524Z,3.40
2022-11-17T16:09:21.117Z,3.00
2022-11-17T16:11:49.291Z,1.27
2022-11-17T16:14:17.574Z,1.60
2022-11-17T16:16:47.936Z,1.02
2022-11-17T16:19:16.339Z,0.80
2022-11-17T16:21:44.806Z,0.85
2022-11-17T16:24:13.268Z,0.68
2022-11-17T16:26:44.541Z,0.93
2022-11-17T16:29:13.192Z,0.82
2022-11-17T16:31:42.285Z,0.80
2022-11-17T16:34:13.834Z,0.80
2022-11-17T16:36:44.575Z,1.20
2022-11-17T16:39:15.400Z,0.75
2022-11-17T16:41:46.535Z,1.10
2022-11-17T16:44:17.488Z,1.00
2022-11-17T16:46:47.826Z,1.02
2022-11-17T16:49:17.779Z,0.90
2022-11-17T16:51:51.568Z,1.42
2022-11-17T16:54:20.441Z,1.70
2022-11-17T16:56:50.033Z,4.60
2022-11-17T16:59:18.540Z,6.22
2022-11-17T17:01:47.669Z,7.85
2022-11-17T17:04:15.921Z,10.15
2022-11-17T17:06:45.925Z,11.73
2022-11-17T17:09:15.756Z,7.57
2022-11-17T17:11:44.697Z,5.88
2022-11-17T17:14:16.121Z,6.32
2022-11-17T17:16:45.429Z,5.80
2022-11-17T17:19:16.455Z,6.43
2022-11-17T17:21:45.569Z,5.70
2022-11-17T17:24:14.300Z,5.20
2022-11-17T17:26:43.298Z,4.43
2022-11-17T17:29:12.045Z,5.38
2022-11-17T17:31:43.584Z,4.05
2022-11-17T17:34:13.787Z,4.25
2022-11-17T17:36:41.970Z,4.80
2022-11-17T17:39:15.721Z,5.13
2022-11-17T17:41:45.892Z,9.73
2022-11-17T17:44:17.201Z,8.02
2022-11-17T17:46:48.677Z,7.18
2022-11-17T17:49:18.904Z,6.57
2022-11-17T17:51:48.132Z,5.63
2022-11-17T17:54:19.851Z,5.30
2022-11-17T17:56:48.811Z,6.05
2022-11-17T17:59:19.038Z,5.10
2022-11-17T18:01:49.876Z,4.22
2022-11-17T18:04:18.087Z,4.80
2022-11-17T18:06:48.222Z,4.95
2022-11-17T18:09:19.383Z,5.93
2022-11-17T18:11:49.896Z,5.95
2022-11-17T18:14:20.507Z,4.60
2022-11-17T18:16:50.195Z,4.63
2022-11-17T18:19:19.570Z,5.22
2022-11-17T18:21:48.465Z,4.55
2022-11-17T18:24:19.495Z,3.80
2022-11-17T18:26:47.770Z,2.90
2022-11-17T18:29:18.925Z,3.40
2022-11-17T18:31:49.589Z,3.15
2022-11-17T18:34:20.990Z,2.85
2022-11-17T18:36:50.269Z,4.10
2022-11-17T18:39:18.812Z,4.68
2022-11-17T18:41:50.285Z,4.05
2022-11-17T18:44:19.912Z,4.25
2022-11-17T18:46:50.008Z,4.53
2022-11-17T18:49:18.609Z,5.50
2022-11-17T18:51:48.404Z,5.32
2022-11-17T18:54:16.974Z,4.78
2022-11-17T18:56:45.308Z,5.15
2022-11-17T18:59:14.879Z,4.90
2022-11-17T19:01:44.155Z,5.82
2022-11-17T19:04:15.565Z,5.93
2022-11-17T19:06:43.918Z,7.43
2022-11-17T19:09:13.433Z,7.30
2022-11-17T19:11:42.073Z,8.18
2022-11-17T19:14:10.825Z,6.03
2022-11-17T19:16:44.424Z,5.47
2022-11-17T19:19:15.531Z,6.72
2022-11-17T19:21:44.397Z,7.63
2022-11-17T19:24:13.710Z,9.60
2022-11-17T19:26:42.744Z,9.02
2022-11-17T19:29:17.107Z,11.07
2022-11-17T19:31:46.347Z,13.27
2022-11-17T19:34:16.696Z,10.95
2022-11-17T19:36:45.485Z,11.93
2022-11-17T19:39:14.942Z,11.00
2022-11-17T19:41:44.885Z,9.48
2022-11-17T19:44:13.306Z,9.00
2022-11-17T19:46:42.586Z,10.65
2022-11-17T19:49:14.072Z,11.00
2022-11-17T19:51:43.858Z,8.68
2022-11-17T19:54:13.874Z,6.32
2022-11-17T19:56:42.200Z,5.30
2022-11-17T19:59:15.673Z,6.32
2022-11-17T20:01:45.746Z,5.47
2022-11-17T20:04:14.031Z,6.45
2022-11-17T20:06:43.678Z,8.32
2022-11-17T20:09:14.085Z,5.10
2022-11-17T20:11:43.981Z,4.30
2022-11-17T20:14:14.310Z,3.20
2022-11-17T20:16:42.948Z,4.65
2022-11-17T20:19:11.539Z,4.55
2022-11-17T20:21:44.472Z,4.22
2022-11-17T20:24:12.751Z,8.60
2022-11-17T20:26:43.002Z,6.85
2022-11-17T20:29:11.359Z,8.10
2022-11-17T20:31:39.526Z,9.52
2022-11-17T20:34:07.974Z,8.88
2022-11-17T20:36:36.632Z,10.88
2022-11-17T20:39:07.989Z,10.65
2022-11-17T20:41:36.373Z,10.95
2022-11-17T20:44:05.112Z,10.93
2022-11-17T20:46:33.493Z,11.68
2022-11-17T20:49:01.670Z,12.20
2022-11-17T20:51:29.970Z,11.95
2022-11-17T20:53:58.268Z,12.48
2022-11-17T20:56:27.845Z,13.23
2022-11-17T20:58:56.058Z,11.30
2022-11-17T21:01:24.564Z,12.38
2022-11-17T21:03:53.777Z,10.95
2022-11-17T21:06:23.374Z,10.05
2022-11-17T21:08:51.832Z,9.25
2022-11-17T21:11:39.169Z,9.75
2022-11-17T21:14:10.403Z,8.93
2022-11-17T21:16:41.714Z,8.15
2022-11-17T21:19:19.188Z,7.13
2022-11-17T21:21:59.379Z,7.15
2022-11-17T21:24:32.437Z,6.90
2022-11-17T21:27:03.037Z,7.82
2022-11-17T21:29:42.374Z,7.57
2022-11-17T21:32:15.625Z,8.13
2022-11-17T21:34:48.633Z,8.82
2022-11-17T21:37:21.780Z,8.05
2022-11-17T21:39:55.395Z,5.03
2022-11-17T21:42:32.793Z,4.82
2022-11-17T21:45:06.973Z,5.15
2022-11-17T21:47:58.011Z,8.38
2022-11-17T21:50:34.028Z,9.00
2022-11-17T21:53:04.664Z,8.85
2022-11-17T21:55:36.838Z,9.27
2022-11-17T21:58:09.518Z,8.30
2022-11-17T22:00:53.257Z,8.32
2022-11-17T22:03:29.882Z,7.78
2022-11-17T22:06:10.619Z,8.15
2022-11-17T22:08:47.276Z,8.43
2022-11-17T22:11:41.769Z,8.30
2022-11-17T22:14:22.802Z,8.52
2022-11-17T22:16:57.669Z,7.80
2022-11-17T22:19:30.294Z,7.93
2022-11-17T22:21:59.676Z,8.52
2022-11-17T22:24:49.619Z,9.23
2022-11-17T22:27:38.490Z,9.90
2022-11-17T22:30:09.634Z,9.40
2022-11-17T22:32:57.106Z,10.63
2022-11-17T22:35:33.688Z,9.25
2022-11-17T22:38:04.504Z,11.07
2022-11-17T22:40:34.821Z,10.23
2022-11-17T22:43:05.679Z,10.82
2022-11-17T22:45:50.039Z,10.85
2022-11-17T22:48:24.025Z,10.80
2022-11-17T22:51:01.635Z,9.85
2022-11-17T22:53:30.933Z,9.32
2022-11-17T22:56:04.084Z,9.70
2022-11-17T22:58:37.031Z,10.60
2022-11-17T23:01:17.801Z,11.27
2022-11-17T23:03:48.647Z,11.93
2022-11-17T23:06:17.076Z,12.20
2022-11-17T23:08:45.318Z,11.48
2022-11-17T23:11:36.075Z,11.85
2022-11-17T23:14:02.054Z,11.45
2022-11-17T23:16:30.284Z,11.20
2022-11-17T23:19:00.137Z,11.82
2022-11-17T23:21:29.298Z,13.55
2022-11-17T23:23:57.732Z,14.05
2022-11-17T23:26:28.783Z,16.42
2022-11-17T23:28:57.989Z,15.90
2022-11-17T23:31:27.827Z,14.07
2022-11-17T23:33:56.240Z,14.52
2022-11-17T23:36:26.188Z,14.63
2022-11-17T23:38:56.384Z,13.93
2022-11-17T23:41:24.777Z,13.80
2022-11-17T23:43:54.721Z,11.48
2022-11-17T23:46:24.357Z,8.77
2022-11-17T23:48:52.577Z,9.45
2022-11-17T23:51:23.639Z,10.48
2022-11-17T23:53:53.680Z,10.15
2022-11-17T23:56:22.568Z,10.13
2022-11-17T23:58:51.636Z,8.88
